sensor_id;sensor_type;location;lat;lon;timestamp;temperature;humidity
9973;DHT22;5027;53.560;10.062;2023-03-05T00:01:37;10.30;95.30
9973;DHT22;5027;53.560;10.062;2023-03-05T00:04:08;10.20;93.70
9973;DHT22;5027;53.560;10.062;2023-03-05T00:06:35;9.80;94.30
9973;DHT22;5027;53.560;10.062;2023-03-05T00:09:03;9.80;94.30
9973;DHT22;5027;53.560;10.062;2023-03-05T00:11:31;10.00;93.50
9973;DHT22;5027;53.560;10.062;2023-03-05T00:14:00;10.00;94.00
9973;DHT22;5027;53.560;10.062;2023-03-05T00:16:27;10.10;93.20
9973;DHT22;5027;53.560;10.062;2023-03-05T00:18:56;10.10;93.40
9973;DHT22;5027;53.560;10.062;2023-03-05T00:21:34;10.10;93.20
9973;DHT22;5027;53.560;10.062;2023-03-05T00:24:05;10.00;94.00
9973;DHT22;5027;53.560;10.062;2023-03-05T00:26:35;10.20;94.50
9973;DHT22;5027;53.560;10.062;2023-03-05T00:29:02;10.40;93.30
9973;DHT22;5027;53.560;10.062;2023-03-05T00:31:30;10.20;93.10
9973;DHT22;5027;53.560;10.062;2023-03-05T00:33:59;10.10;93.10
9973;DHT22;5027;53.560;10.062;2023-03-05T00:36:27;9.90;94.30
9973;DHT22;5027;53.560;10.062;2023-03-05T00:38:54;10.20;97.60
9973;DHT22;5027;53.560;10.062;2023-03-05T00:41:21;10.40;94.30
9973;DHT22;5027;53.560;10.062;2023-03-05T00:43:48;10.90;99.90
9973;DHT22;5027;53.560;10.062;2023-03-05T00:46:15;10.80;94.00
9973;DHT22;5027;53.560;10.062;2023-03-05T00:48:42;10.80;95.90
9973;DHT22;5027;53.560;10.062;2023-03-05T00:51:09;11.00;99.90
9973;DHT22;5027;53.560;10.062;2023-03-05T00:53:36;11.60;97.80
9973;DHT22;5027;53.560;10.062;2023-03-05T00:56:04;11.20;95.20
9973;DHT22;5027;53.560;10.062;2023-03-05T00:58:30;10.90;97.50
9973;DHT22;5027;53.560;10.062;2023-03-05T01:00:58;10.70;98.00
9973;DHT22;5027;53.560;10.062;2023-03-05T01:03:26;10.50;95.80
9973;DHT22;5027;53.560;10.062;2023-03-05T01:05:54;10.20;96.00
9973;DHT22;5027;53.560;10.062;2023-03-05T01:08:21;10.20;99.90
9973;DHT22;5027;53.560;10.062;2023-03-05T01:10:48;10.10;96.20
9973;DHT22;5027;53.560;10.062;2023-03-05T01:13:14;9.90;97.20
9973;DHT22;5027;53.560;10.062;2023-03-05T01:15:41;9.70;97.50
9973;DHT22;5027;53.560;10.062;2023-03-05T01:18:08;9.60;97.80
9973;DHT22;5027;53.560;10.062;2023-03-05T01:20:35;9.60;98.60
9973;DHT22;5027;53.560;10.062;2023-03-05T01:23:01;9.60;98.90
9973;DHT22;5027;53.560;10.062;2023-03-05T01:25:28;9.40;98.60
9973;DHT22;5027;53.560;10.062;2023-03-05T01:27:55;9.30;99.40
9973;DHT22;5027;53.560;10.062;2023-03-05T01:30:22;9.50;99.60
9973;DHT22;5027;53.560;10.062;2023-03-05T01:32:49;9.60;99.90
9973;DHT22;5027;53.560;10.062;2023-03-05T01:35:19;10.50;99.90
9973;DHT22;5027;53.560;10.062;2023-03-05T01:37:47;10.30;97.90
9973;DHT22;5027;53.560;10.062;2023-03-05T01:40:17;9.90;99.10
9973;DHT22;5027;53.560;10.062;2023-03-05T01:42:46;9.70;99.90
9973;DHT22;5027;53.560;10.062;2023-03-05T01:45:16;9.70;99.50
9973;DHT22;5027;53.560;10.062;2023-03-05T01:47:43;9.60;99.90
9973;DHT22;5027;53.560;10.062;2023-03-05T01:50:15;9.60;99.70
9973;DHT22;5027;53.560;10.062;2023-03-05T01:52:47;9.50;99.80
9973;DHT22;5027;53.560;10.062;2023-03-05T01:55:18;9.40;99.70
9973;DHT22;5027;53.560;10.062;2023-03-05T01:57:49;9.50;99.90
9973;DHT22;5027;53.560;10.062;2023-03-05T02:00:19;9.60;99.40
9973;DHT22;5027;53.560;10.062;2023-03-05T02:02:49;9.40;99.90
9973;DHT22;5027;53.560;10.062;2023-03-05T02:05:19;9.50;99.90
9973;DHT22;5027;53.560;10.062;2023-03-05T02:07:54;9.80;99.90
9973;DHT22;5027;53.560;10.062;2023-03-05T02:10:27;9.80;99.90
9973;DHT22;5027;53.560;10.062;2023-03-05T02:12:56;10.60;99.90
9973;DHT22;5027;53.560;10.062;2023-03-05T02:15:25;10.30;99.90
9973;DHT22;5027;53.560;10.062;2023-03-05T02:17:51;10.90;99.40
9973;DHT22;5027;53.560;10.062;2023-03-05T02:20:21;10.10;98.00
9973;DHT22;5027;53.560;10.062;2023-03-05T02:22:48;9.80;99.90
9973;DHT22;5027;53.560;10.062;2023-03-05T02:25:17;10.00;99.90
9973;DHT22;5027;53.560;10.062;2023-03-05T02:30:23;9.80;98.80
9973;DHT22;5027;53.560;10.062;2023-03-05T02:32:49;9.30;99.80
9973;DHT22;5027;53.560;10.062;2023-03-05T02:35:18;9.40;99.90
9973;DHT22;5027;53.560;10.062;2023-03-05T02:37:45;9.40;99.70
9973;DHT22;5027;53.560;10.062;2023-03-05T02:40:12;9.20;99.80
9973;DHT22;5027;53.560;10.062;2023-03-05T02:42:40;9.20;99.90
9973;DHT22;5027;53.560;10.062;2023-03-05T02:45:09;9.50;99.90
9973;DHT22;5027;53.560;10.062;2023-03-05T02:47:36;9.30;99.90
9973;DHT22;5027;53.560;10.062;2023-03-05T02:50:05;9.40;99.80
9973;DHT22;5027;53.560;10.062;2023-03-05T02:52:32;9.40;99.80
9973;DHT22;5027;53.560;10.062;2023-03-05T02:54:59;9.30;99.90
9973;DHT22;5027;53.560;10.062;2023-03-05T02:57:28;9.90;99.90
9973;DHT22;5027;53.560;10.062;2023-03-05T02:59:54;9.50;99.90
9973;DHT22;5027;53.560;10.062;2023-03-05T03:02:22;9.50;99.30
9973;DHT22;5027;53.560;10.062;2023-03-05T03:04:48;9.40;99.90
9973;DHT22;5027;53.560;10.062;2023-03-05T03:07:15;9.40;99.90
9973;DHT22;5027;53.560;10.062;2023-03-05T03:09:42;9.40;99.90
9973;DHT22;5027;53.560;10.062;2023-03-05T03:12:10;9.20;99.90
9973;DHT22;5027;53.560;10.062;2023-03-05T03:14:40;9.40;99.90
9973;DHT22;5027;53.560;10.062;2023-03-05T03:17:10;9.60;99.40
9973;DHT22;5027;53.560;10.062;2023-03-05T03:19:38;9.40;99.30
9973;DHT22;5027;53.560;10.062;2023-03-05T03:22:06;9.40;99.60
9973;DHT22;5027;53.560;10.062;2023-03-05T03:24:34;9.30;99.90
9973;DHT22;5027;53.560;10.062;2023-03-05T03:27:01;9.20;99.90
9973;DHT22;5027;53.560;10.062;2023-03-05T03:29:28;9.20;99.90
9973;DHT22;5027;53.560;10.062;2023-03-05T03:31:54;9.10;99.90
9973;DHT22;5027;53.560;10.062;2023-03-05T03:34:21;9.80;99.90
9973;DHT22;5027;53.560;10.062;2023-03-05T03:36:49;9.60;99.80
9973;DHT22;5027;53.560;10.062;2023-03-05T03:39:16;9.80;99.90
9973;DHT22;5027;53.560;10.062;2023-03-05T03:41:45;9.90;99.10
9973;DHT22;5027;53.560;10.062;2023-03-05T03:44:12;9.60;98.90
9973;DHT22;5027;53.560;10.062;2023-03-05T03:46:40;9.30;99.30
9973;DHT22;5027;53.560;10.062;2023-03-05T03:49:06;9.30;99.60
9973;DHT22;5027;53.560;10.062;2023-03-05T03:51:36;9.40;99.70
9973;DHT22;5027;53.560;10.062;2023-03-05T03:54:03;9.30;98.90
9973;DHT22;5027;53.560;10.062;2023-03-05T03:56:30;9.30;99.30
9973;DHT22;5027;53.560;10.062;2023-03-05T03:58:57;9.30;99.00
9973;DHT22;5027;53.560;10.062;2023-03-05T04:01:23;9.60;98.90
9973;DHT22;5027;53.560;10.062;2023-03-05T04:03:50;9.70;98.70
9973;DHT22;5027;53.560;10.062;2023-03-05T04:06:17;9.40;99.00
9973;DHT22;5027;53.560;10.062;2023-03-05T04:08:43;9.50;98.50
9973;DHT22;5027;53.560;10.062;2023-03-05T04:11:10;9.40;99.20
9973;DHT22;5027;53.560;10.062;2023-03-05T04:13:37;9.40;99.30
9973;DHT22;5027;53.560;10.062;2023-03-05T04:16:04;9.30;99.00
9973;DHT22;5027;53.560;10.062;2023-03-05T04:18:30;9.20;98.90
9973;DHT22;5027;53.560;10.062;2023-03-05T04:20:58;9.10;99.00
9973;DHT22;5027;53.560;10.062;2023-03-05T04:23:24;9.00;99.30
9973;DHT22;5027;53.560;10.062;2023-03-05T04:25:51;8.90;99.90
9973;DHT22;5027;53.560;10.062;2023-03-05T04:28:18;9.30;99.00
9973;DHT22;5027;53.560;10.062;2023-03-05T04:30:44;9.20;99.00
9973;DHT22;5027;53.560;10.062;2023-03-05T04:33:11;9.20;99.20
9973;DHT22;5027;53.560;10.062;2023-03-05T04:35:38;9.20;98.80
9973;DHT22;5027;53.560;10.062;2023-03-05T04:38:05;9.20;99.00
9973;DHT22;5027;53.560;10.062;2023-03-05T04:40:32;9.20;99.20
9973;DHT22;5027;53.560;10.062;2023-03-05T04:42:59;9.10;99.00
9973;DHT22;5027;53.560;10.062;2023-03-05T04:45:26;9.00;98.90
9973;DHT22;5027;53.560;10.062;2023-03-05T04:47:52;9.20;99.00
9973;DHT22;5027;53.560;10.062;2023-03-05T04:50:19;9.10;99.40
9973;DHT22;5027;53.560;10.062;2023-03-05T04:52:46;9.00;98.90
9973;DHT22;5027;53.560;10.062;2023-03-05T04:55:14;8.70;99.20
9973;DHT22;5027;53.560;10.062;2023-03-05T04:57:41;8.90;99.50
9973;DHT22;5027;53.560;10.062;2023-03-05T05:00:11;8.90;99.40
9973;DHT22;5027;53.560;10.062;2023-03-05T05:02:41;8.80;99.80
9973;DHT22;5027;53.560;10.062;2023-03-05T05:05:10;8.80;99.70
9973;DHT22;5027;53.560;10.062;2023-03-05T05:07:37;8.70;99.90
9973;DHT22;5027;53.560;10.062;2023-03-05T05:10:05;8.70;99.90
9973;DHT22;5027;53.560;10.062;2023-03-05T05:12:33;8.80;99.70
9973;DHT22;5027;53.560;10.062;2023-03-05T05:15:00;8.70;99.80
9973;DHT22;5027;53.560;10.062;2023-03-05T05:17:27;8.70;99.90
9973;DHT22;5027;53.560;10.062;2023-03-05T05:19:56;8.60;99.70
9973;DHT22;5027;53.560;10.062;2023-03-05T05:22:23;8.60;99.90
9973;DHT22;5027;53.560;10.062;2023-03-05T05:24:49;8.60;99.90
9973;DHT22;5027;53.560;10.062;2023-03-05T05:27:16;8.70;99.90
9973;DHT22;5027;53.560;10.062;2023-03-05T05:29:42;8.60;99.90
9973;DHT22;5027;53.560;10.062;2023-03-05T05:32:11;8.70;99.90
9973;DHT22;5027;53.560;10.062;2023-03-05T05:34:38;8.80;99.90
9973;DHT22;5027;53.560;10.062;2023-03-05T05:37:05;8.90;99.70
9973;DHT22;5027;53.560;10.062;2023-03-05T05:39:31;8.60;99.50
9973;DHT22;5027;53.560;10.062;2023-03-05T05:41:58;8.80;99.90
9973;DHT22;5027;53.560;10.062;2023-03-05T05:44:24;8.70;99.80
9973;DHT22;5027;53.560;10.062;2023-03-05T05:46:51;8.60;99.90
9973;DHT22;5027;53.560;10.062;2023-03-05T05:49:18;8.70;99.80
9973;DHT22;5027;53.560;10.062;2023-03-05T05:51:44;8.70;99.80
9973;DHT22;5027;53.560;10.062;2023-03-05T05:54:12;8.80;99.50
9973;DHT22;5027;53.560;10.062;2023-03-05T05:56:40;8.80;99.60
9973;DHT22;5027;53.560;10.062;2023-03-05T05:59:08;8.80;99.40
9973;DHT22;5027;53.560;10.062;2023-03-05T06:01:35;8.80;99.30
9973;DHT22;5027;53.560;10.062;2023-03-05T06:04:02;9.00;98.90
9973;DHT22;5027;53.560;10.062;2023-03-05T06:06:29;8.80;99.10
9973;DHT22;5027;53.560;10.062;2023-03-05T06:08:56;9.20;99.10
9973;DHT22;5027;53.560;10.062;2023-03-05T06:11:23;9.00;99.90
9973;DHT22;5027;53.560;10.062;2023-03-05T06:13:50;9.40;98.70
9973;DHT22;5027;53.560;10.062;2023-03-05T06:16:20;9.40;98.60
9973;DHT22;5027;53.560;10.062;2023-03-05T06:18:47;9.20;99.30
9973;DHT22;5027;53.560;10.062;2023-03-05T06:21:15;9.00;98.70
9973;DHT22;5027;53.560;10.062;2023-03-05T06:23:42;9.00;98.80
9973;DHT22;5027;53.560;10.062;2023-03-05T06:26:11;8.90;99.10
9973;DHT22;5027;53.560;10.062;2023-03-05T06:28:39;8.80;99.50
9973;DHT22;5027;53.560;10.062;2023-03-05T06:31:14;8.90;99.10
9973;DHT22;5027;53.560;10.062;2023-03-05T06:33:41;8.90;99.10
9973;DHT22;5027;53.560;10.062;2023-03-05T06:36:13;8.80;99.10
9973;DHT22;5027;53.560;10.062;2023-03-05T06:38:41;9.00;99.90
9973;DHT22;5027;53.560;10.062;2023-03-05T06:41:10;8.90;98.50
9973;DHT22;5027;53.560;10.062;2023-03-05T06:43:39;8.80;98.80
9973;DHT22;5027;53.560;10.062;2023-03-05T06:46:19;8.70;99.00
9973;DHT22;5027;53.560;10.062;2023-03-05T06:48:46;9.10;99.10
9973;DHT22;5027;53.560;10.062;2023-03-05T06:51:20;8.60;98.30
9973;DHT22;5027;53.560;10.062;2023-03-05T06:53:48;8.50;99.30
9973;DHT22;5027;53.560;10.062;2023-03-05T06:56:16;8.70;99.50
9973;DHT22;5027;53.560;10.062;2023-03-05T06:58:44;8.80;98.80
9973;DHT22;5027;53.560;10.062;2023-03-05T07:01:12;8.80;98.80
9973;DHT22;5027;53.560;10.062;2023-03-05T07:03:39;8.90;98.90
9973;DHT22;5027;53.560;10.062;2023-03-05T07:06:08;9.10;98.60
9973;DHT22;5027;53.560;10.062;2023-03-05T07:08:35;8.90;98.80
9973;DHT22;5027;53.560;10.062;2023-03-05T07:11:02;9.00;99.10
9973;DHT22;5027;53.560;10.062;2023-03-05T07:13:29;8.80;99.40
9973;DHT22;5027;53.560;10.062;2023-03-05T07:15:56;8.80;99.10
9973;DHT22;5027;53.560;10.062;2023-03-05T07:18:22;8.80;99.90
9973;DHT22;5027;53.560;10.062;2023-03-05T07:20:49;9.00;99.30
9973;DHT22;5027;53.560;10.062;2023-03-05T07:23:16;8.90;99.60
9973;DHT22;5027;53.560;10.062;2023-03-05T07:25:42;8.80;99.30
9973;DHT22;5027;53.560;10.062;2023-03-05T07:28:09;8.80;99.90
9973;DHT22;5027;53.560;10.062;2023-03-05T07:30:36;8.80;99.80
9973;DHT22;5027;53.560;10.062;2023-03-05T07:33:03;8.80;99.80
9973;DHT22;5027;53.560;10.062;2023-03-05T07:35:29;8.90;99.70
9973;DHT22;5027;53.560;10.062;2023-03-05T07:37:56;8.90;99.90
9973;DHT22;5027;53.560;10.062;2023-03-05T07:40:22;8.90;99.40
9973;DHT22;5027;53.560;10.062;2023-03-05T07:42:49;8.80;99.80
9973;DHT22;5027;53.560;10.062;2023-03-05T07:45:26;8.90;99.90
9973;DHT22;5027;53.560;10.062;2023-03-05T07:47:53;8.90;99.30
9973;DHT22;5027;53.560;10.062;2023-03-05T07:50:21;8.90;99.40
9973;DHT22;5027;53.560;10.062;2023-03-05T07:52:48;8.60;99.90
9973;DHT22;5027;53.560;10.062;2023-03-05T07:55:14;9.10;99.90
9973;DHT22;5027;53.560;10.062;2023-03-05T07:57:41;9.30;99.40
9973;DHT22;5027;53.560;10.062;2023-03-05T08:00:08;9.10;99.50
9973;DHT22;5027;53.560;10.062;2023-03-05T08:02:37;8.90;99.80
9973;DHT22;5027;53.560;10.062;2023-03-05T08:05:04;9.30;99.90
9973;DHT22;5027;53.560;10.062;2023-03-05T08:07:31;9.00;99.10
9973;DHT22;5027;53.560;10.062;2023-03-05T08:09:58;8.80;99.50
9973;DHT22;5027;53.560;10.062;2023-03-05T08:12:24;8.80;99.10
9973;DHT22;5027;53.560;10.062;2023-03-05T08:14:51;8.80;99.90
9973;DHT22;5027;53.560;10.062;2023-03-05T08:17:18;9.10;98.70
9973;DHT22;5027;53.560;10.062;2023-03-05T08:19:44;8.90;99.10
9973;DHT22;5027;53.560;10.062;2023-03-05T08:22:11;8.90;99.20
9973;DHT22;5027;53.560;10.062;2023-03-05T08:24:38;9.00;98.70
9973;DHT22;5027;53.560;10.062;2023-03-05T08:27:04;8.90;99.10
9973;DHT22;5027;53.560;10.062;2023-03-05T08:29:31;8.80;98.70
9973;DHT22;5027;53.560;10.062;2023-03-05T08:31:58;9.10;99.80
9973;DHT22;5027;53.560;10.062;2023-03-05T08:34:24;9.20;98.00
9973;DHT22;5027;53.560;10.062;2023-03-05T08:36:51;9.40;99.60
9973;DHT22;5027;53.560;10.062;2023-03-05T08:39:18;9.60;98.40
9973;DHT22;5027;53.560;10.062;2023-03-05T08:41:45;9.20;97.90
9973;DHT22;5027;53.560;10.062;2023-03-05T08:44:11;9.20;97.70
9973;DHT22;5027;53.560;10.062;2023-03-05T08:46:39;9.30;98.50
9973;DHT22;5027;53.560;10.062;2023-03-05T08:49:06;9.80;99.90
9973;DHT22;5027;53.560;10.062;2023-03-05T08:51:33;10.20;99.80
9973;DHT22;5027;53.560;10.062;2023-03-05T08:54:01;10.30;97.50
9973;DHT22;5027;53.560;10.062;2023-03-05T08:56:33;9.90;97.70
9973;DHT22;5027;53.560;10.062;2023-03-05T08:59:01;9.40;97.30
9973;DHT22;5027;53.560;10.062;2023-03-05T09:01:29;9.20;97.90
9973;DHT22;5027;53.560;10.062;2023-03-05T09:03:58;9.20;97.70
9973;DHT22;5027;53.560;10.062;2023-03-05T09:06:26;9.10;97.90
9973;DHT22;5027;53.560;10.062;2023-03-05T09:08:53;9.50;97.00
9973;DHT22;5027;53.560;10.062;2023-03-05T09:11:20;9.60;97.10
9973;DHT22;5027;53.560;10.062;2023-03-05T09:13:47;10.20;99.90
9973;DHT22;5027;53.560;10.062;2023-03-05T09:16:16;10.40;98.50
9973;DHT22;5027;53.560;10.062;2023-03-05T09:18:43;10.00;95.00
9973;DHT22;5027;53.560;10.062;2023-03-05T09:21:12;10.20;99.90
9973;DHT22;5027;53.560;10.062;2023-03-05T09:23:40;10.50;99.70
9973;DHT22;5027;53.560;10.062;2023-03-05T09:26:09;10.80;99.70
9973;DHT22;5027;53.560;10.062;2023-03-05T09:28:38;11.00;99.90
9973;DHT22;5027;53.560;10.062;2023-03-05T09:31:06;11.00;97.30
9973;DHT22;5027;53.560;10.062;2023-03-05T09:33:34;11.20;99.90
9973;DHT22;5027;53.560;10.062;2023-03-05T09:36:01;10.90;97.00
9973;DHT22;5027;53.560;10.062;2023-03-05T09:38:28;10.30;95.90
9973;DHT22;5027;53.560;10.062;2023-03-05T09:41:11;10.10;97.00
9973;DHT22;5027;53.560;10.062;2023-03-05T09:46:47;9.40;95.80
9973;DHT22;5027;53.560;10.062;2023-03-05T09:52:17;10.20;95.80
9973;DHT22;5027;53.560;10.062;2023-03-05T09:54:48;10.30;99.90
9973;DHT22;5027;53.560;10.062;2023-03-05T09:57:24;10.90;99.90
9973;DHT22;5027;53.560;10.062;2023-03-05T09:59:56;11.50;99.90
9973;DHT22;5027;53.560;10.062;2023-03-05T10:02:31;11.80;99.90
9973;DHT22;5027;53.560;10.062;2023-03-05T10:05:17;12.30;99.90
9973;DHT22;5027;53.560;10.062;2023-03-05T10:07:54;12.30;98.90
9973;DHT22;5027;53.560;10.062;2023-03-05T10:10:38;12.00;99.90
9973;DHT22;5027;53.560;10.062;2023-03-05T10:13:15;12.00;99.90
9973;DHT22;5027;53.560;10.062;2023-03-05T10:15:58;11.90;99.90
9973;DHT22;5027;53.560;10.062;2023-03-05T10:18:56;11.60;99.90
9973;DHT22;5027;53.560;10.062;2023-03-05T10:21:39;11.40;99.80
9973;DHT22;5027;53.560;10.062;2023-03-05T10:24:42;10.70;98.40
9973;DHT22;5027;53.560;10.062;2023-03-05T10:27:48;10.00;98.80
9973;DHT22;5027;53.560;10.062;2023-03-05T10:30:26;9.70;99.90
9973;DHT22;5027;53.560;10.062;2023-03-05T10:35:41;9.50;99.90
9973;DHT22;5027;53.560;10.062;2023-03-05T10:41:25;9.50;99.90
9973;DHT22;5027;53.560;10.062;2023-03-05T10:44:08;9.40;99.90
9973;DHT22;5027;53.560;10.062;2023-03-05T10:46:38;10.00;99.90
9973;DHT22;5027;53.560;10.062;2023-03-05T10:49:18;10.00;98.80
9973;DHT22;5027;53.560;10.062;2023-03-05T10:52:03;10.00;99.90
9973;DHT22;5027;53.560;10.062;2023-03-05T10:54:34;10.20;99.90
9973;DHT22;5027;53.560;10.062;2023-03-05T10:57:12;10.90;99.90
9973;DHT22;5027;53.560;10.062;2023-03-05T10:59:49;10.90;99.90
9973;DHT22;5027;53.560;10.062;2023-03-05T11:02:19;10.90;99.90
9973;DHT22;5027;53.560;10.062;2023-03-05T11:04:46;10.90;99.90
9973;DHT22;5027;53.560;10.062;2023-03-05T11:09:41;10.80;99.80
9973;DHT22;5027;53.560;10.062;2023-03-05T11:12:19;10.40;99.40
9973;DHT22;5027;53.560;10.062;2023-03-05T11:17:38;10.50;99.90
9973;DHT22;5027;53.560;10.062;2023-03-05T11:26:04;10.30;97.80
9973;DHT22;5027;53.560;10.062;2023-03-05T11:28:56;10.30;98.50
9973;DHT22;5027;53.560;10.062;2023-03-05T11:31:31;10.10;97.50
9973;DHT22;5027;53.560;10.062;2023-03-05T11:34:04;10.00;99.10
9973;DHT22;5027;53.560;10.062;2023-03-05T11:36:36;10.10;98.60
9973;DHT22;5027;53.560;10.062;2023-03-05T11:44:14;10.10;98.50
9973;DHT22;5027;53.560;10.062;2023-03-05T11:53:21;10.30;96.50
9973;DHT22;5027;53.560;10.062;2023-03-05T11:55:52;10.40;98.30
9973;DHT22;5027;53.560;10.062;2023-03-05T11:58:30;10.20;96.80
9973;DHT22;5027;53.560;10.062;2023-03-05T12:00:59;10.10;96.60
9973;DHT22;5027;53.560;10.062;2023-03-05T12:03:31;10.10;96.80
9973;DHT22;5027;53.560;10.062;2023-03-05T12:06:22;10.10;96.50
9973;DHT22;5027;53.560;10.062;2023-03-05T12:08:54;10.10;96.40
9973;DHT22;5027;53.560;10.062;2023-03-05T12:11:27;10.30;97.80
9973;DHT22;5027;53.560;10.062;2023-03-05T12:13:58;10.40;96.90
9973;DHT22;5027;53.560;10.062;2023-03-05T12:16:40;10.40;97.10
9973;DHT22;5027;53.560;10.062;2023-03-05T12:21:51;10.30;96.30
9973;DHT22;5027;53.560;10.062;2023-03-05T12:35:02;10.30;95.30
9973;DHT22;5027;53.560;10.062;2023-03-05T12:39:58;10.30;94.60
9973;DHT22;5027;53.560;10.062;2023-03-05T12:47:42;10.50;94.60
9973;DHT22;5027;53.560;10.062;2023-03-05T12:58:24;10.50;92.20
9973;DHT22;5027;53.560;10.062;2023-03-05T13:01:33;10.40;90.90
9973;DHT22;5027;53.560;10.062;2023-03-05T13:04:10;10.30;92.00
9973;DHT22;5027;53.560;10.062;2023-03-05T13:06:40;10.30;92.10
9973;DHT22;5027;53.560;10.062;2023-03-05T13:09:22;10.40;90.90
9973;DHT22;5027;53.560;10.062;2023-03-05T13:11:51;10.20;91.30
9973;DHT22;5027;53.560;10.062;2023-03-05T13:14:27;10.30;92.00
9973;DHT22;5027;53.560;10.062;2023-03-05T13:16:54;10.40;92.40
9973;DHT22;5027;53.560;10.062;2023-03-05T13:19:21;10.50;92.20
9973;DHT22;5027;53.560;10.062;2023-03-05T13:22:00;10.40;91.70
9973;DHT22;5027;53.560;10.062;2023-03-05T13:24:27;10.30;92.40
9973;DHT22;5027;53.560;10.062;2023-03-05T13:26:55;11.30;98.80
9973;DHT22;5027;53.560;10.062;2023-03-05T13:29:24;11.50;93.90
9973;DHT22;5027;53.560;10.062;2023-03-05T13:32:01;11.50;95.70
9973;DHT22;5027;53.560;10.062;2023-03-05T13:34:34;11.10;94.90
9973;DHT22;5027;53.560;10.062;2023-03-05T13:37:18;11.00;94.50
9973;DHT22;5027;53.560;10.062;2023-03-05T13:39:55;10.60;92.60
9973;DHT22;5027;53.560;10.062;2023-03-05T13:42:31;10.70;95.30
9973;DHT22;5027;53.560;10.062;2023-03-05T13:45:02;10.60;93.10
9973;DHT22;5027;53.560;10.062;2023-03-05T13:47:31;10.80;93.90
9973;DHT22;5027;53.560;10.062;2023-03-05T13:50:01;10.80;92.30
9973;DHT22;5027;53.560;10.062;2023-03-05T13:52:36;10.80;92.90
9973;DHT22;5027;53.560;10.062;2023-03-05T13:55:11;10.80;92.90
9973;DHT22;5027;53.560;10.062;2023-03-05T13:57:40;10.80;93.00
9973;DHT22;5027;53.560;10.062;2023-03-05T14:00:36;10.60;92.20
9973;DHT22;5027;53.560;10.062;2023-03-05T14:03:27;10.50;93.00
9973;DHT22;5027;53.560;10.062;2023-03-05T14:05:54;10.40;92.60
9973;DHT22;5027;53.560;10.062;2023-03-05T14:08:25;10.50;92.50
9973;DHT22;5027;53.560;10.062;2023-03-05T14:10:53;10.50;93.10
9973;DHT22;5027;53.560;10.062;2023-03-05T14:13:24;10.50;92.80
9973;DHT22;5027;53.560;10.062;2023-03-05T14:16:09;10.50;92.20
9973;DHT22;5027;53.560;10.062;2023-03-05T14:18:37;10.40;92.80
9973;DHT22;5027;53.560;10.062;2023-03-05T14:21:06;10.40;92.50
9973;DHT22;5027;53.560;10.062;2023-03-05T14:23:42;10.40;92.60
9973;DHT22;5027;53.560;10.062;2023-03-05T14:26:20;10.20;92.00
9973;DHT22;5027;53.560;10.062;2023-03-05T14:31:38;10.40;92.70
9973;DHT22;5027;53.560;10.062;2023-03-05T14:34:21;10.30;95.90
9973;DHT22;5027;53.560;10.062;2023-03-05T14:36:51;10.40;96.00
9973;DHT22;5027;53.560;10.062;2023-03-05T14:39:39;10.40;93.90
9973;DHT22;5027;53.560;10.062;2023-03-05T14:44:46;10.30;93.70
9973;DHT22;5027;53.560;10.062;2023-03-05T14:47:13;10.30;93.70
9973;DHT22;5027;53.560;10.062;2023-03-05T14:49:39;10.30;93.30
9973;DHT22;5027;53.560;10.062;2023-03-05T14:52:07;10.20;93.10
9973;DHT22;5027;53.560;10.062;2023-03-05T14:54:36;10.20;93.20
9973;DHT22;5027;53.560;10.062;2023-03-05T14:57:04;10.00;92.50
9973;DHT22;5027;53.560;10.062;2023-03-05T14:59:31;10.00;92.70
9973;DHT22;5027;53.560;10.062;2023-03-05T15:01:57;10.10;92.40
9973;DHT22;5027;53.560;10.062;2023-03-05T15:04:24;10.00;92.20
9973;DHT22;5027;53.560;10.062;2023-03-05T15:06:51;10.10;92.50
9973;DHT22;5027;53.560;10.062;2023-03-05T15:09:18;10.00;92.70
9973;DHT22;5027;53.560;10.062;2023-03-05T15:11:47;10.10;92.60
9973;DHT22;5027;53.560;10.062;2023-03-05T15:14:13;10.00;92.90
9973;DHT22;5027;53.560;10.062;2023-03-05T15:16:42;10.00;93.30
9973;DHT22;5027;53.560;10.062;2023-03-05T15:19:11;10.00;93.70
9973;DHT22;5027;53.560;10.062;2023-03-05T15:21:39;10.10;93.90
9973;DHT22;5027;53.560;10.062;2023-03-05T15:24:06;10.00;94.40
9973;DHT22;5027;53.560;10.062;2023-03-05T15:26:33;10.10;97.70
9973;DHT22;5027;53.560;10.062;2023-03-05T15:29:00;10.20;95.30
9973;DHT22;5027;53.560;10.062;2023-03-05T15:31:27;10.20;94.90
9973;DHT22;5027;53.560;10.062;2023-03-05T15:33:55;10.20;95.50
9973;DHT22;5027;53.560;10.062;2023-03-05T15:36:22;10.00;95.30
9973;DHT22;5027;53.560;10.062;2023-03-05T15:38:48;10.00;96.10
9973;DHT22;5027;53.560;10.062;2023-03-05T15:41:15;10.00;95.90
9973;DHT22;5027;53.560;10.062;2023-03-05T15:43:43;10.00;96.10
9973;DHT22;5027;53.560;10.062;2023-03-05T15:46:09;10.00;96.20
9973;DHT22;5027;53.560;10.062;2023-03-05T15:48:36;10.00;96.80
9973;DHT22;5027;53.560;10.062;2023-03-05T15:51:06;10.00;96.30
9973;DHT22;5027;53.560;10.062;2023-03-05T15:53:33;9.90;97.00
9973;DHT22;5027;53.560;10.062;2023-03-05T15:55:59;9.80;97.00
9973;DHT22;5027;53.560;10.062;2023-03-05T15:58:26;9.80;96.80
9973;DHT22;5027;53.560;10.062;2023-03-05T16:00:53;9.90;96.80
9973;DHT22;5027;53.560;10.062;2023-03-05T16:03:19;9.80;96.80
9973;DHT22;5027;53.560;10.062;2023-03-05T16:05:48;9.70;97.60
9973;DHT22;5027;53.560;10.062;2023-03-05T16:08:15;9.70;97.70
9973;DHT22;5027;53.560;10.062;2023-03-05T16:10:41;9.80;97.50
9973;DHT22;5027;53.560;10.062;2023-03-05T16:13:14;9.80;97.20
9973;DHT22;5027;53.560;10.062;2023-03-05T16:15:42;9.80;97.80
9973;DHT22;5027;53.560;10.062;2023-03-05T16:18:15;9.70;97.80
9973;DHT22;5027;53.560;10.062;2023-03-05T16:20:41;9.70;97.50
9973;DHT22;5027;53.560;10.062;2023-03-05T16:23:08;9.80;98.10
9973;DHT22;5027;53.560;10.062;2023-03-05T16:25:36;9.80;97.60
9973;DHT22;5027;53.560;10.062;2023-03-05T16:28:03;9.90;97.20
9973;DHT22;5027;53.560;10.062;2023-03-05T16:30:29;10.30;96.60
9973;DHT22;5027;53.560;10.062;2023-03-05T16:32:58;10.00;96.30
9973;DHT22;5027;53.560;10.062;2023-03-05T16:35:25;9.90;97.20
9973;DHT22;5027;53.560;10.062;2023-03-05T16:37:52;9.90;96.90
9973;DHT22;5027;53.560;10.062;2023-03-05T16:40:19;10.00;96.50
9973;DHT22;5027;53.560;10.062;2023-03-05T16:42:45;9.90;97.40
9973;DHT22;5027;53.560;10.062;2023-03-05T16:45:12;9.90;97.50
9973;DHT22;5027;53.560;10.062;2023-03-05T16:47:39;9.90;97.20
9973;DHT22;5027;53.560;10.062;2023-03-05T16:50:07;10.10;96.80
9973;DHT22;5027;53.560;10.062;2023-03-05T16:52:34;10.00;97.00
9973;DHT22;5027;53.560;10.062;2023-03-05T16:55:02;9.90;97.70
9973;DHT22;5027;53.560;10.062;2023-03-05T16:57:29;9.90;97.50
9973;DHT22;5027;53.560;10.062;2023-03-05T16:59:56;9.80;97.60
9973;DHT22;5027;53.560;10.062;2023-03-05T17:02:23;9.70;97.60
9973;DHT22;5027;53.560;10.062;2023-03-05T17:04:50;9.80;98.90
9973;DHT22;5027;53.560;10.062;2023-03-05T17:07:17;9.80;98.20
9973;DHT22;5027;53.560;10.062;2023-03-05T17:09:44;9.70;98.70
9973;DHT22;5027;53.560;10.062;2023-03-05T17:12:13;9.80;98.70
9973;DHT22;5027;53.560;10.062;2023-03-05T17:14:39;9.70;98.70
9973;DHT22;5027;53.560;10.062;2023-03-05T17:17:06;9.70;99.00
9973;DHT22;5027;53.560;10.062;2023-03-05T17:19:33;9.70;99.80
9973;DHT22;5027;53.560;10.062;2023-03-05T17:22:01;9.80;99.70